createdAt,value
2017-03-04T00:00:28.838Z,0
2017-03-04T00:01:09.231Z,0
2017-03-04T00:01:49.669Z,0
2017-03-04T00:02:30.076Z,0
2017-03-04T00:03:10.508Z,0
2017-03-04T00:03:50.929Z,0
2017-03-04T00:04:32.017Z,0
2017-03-04T00:05:12.406Z,0
2017-03-04T00:05:52.815Z,0
2017-03-04T00:06:33.195Z,0
2017-03-04T00:07:13.601Z,0
2017-03-04T00:07:54.037Z,0
2017-03-04T00:08:34.480Z,0
2017-03-04T00:09:14.875Z,0
2017-03-04T00:09:55.265Z,0
2017-03-04T00:10:35.684Z,0
2017-03-04T00:11:16.571Z,0
2017-03-04T00:11:56.946Z,0
2017-03-04T00:12:37.344Z,0
2017-03-04T00:13:17.760Z,0
2017-03-04T00:13:58.179Z,0
2017-03-04T00:14:38.577Z,0
2017-03-04T00:15:18.979Z,0
2017-03-04T00:15:59.381Z,0
2017-03-04T00:16:39.749Z,0
2017-03-04T00:17:20.146Z,0
2017-03-04T00:18:00.569Z,0
2017-03-04T00:18:40.946Z,0
2017-03-04T00:19:21.360Z,0
2017-03-04T00:20:01.741Z,0
2017-03-04T00:20:43.063Z,0
2017-03-04T00:21:23.438Z,0
2017-03-04T00:24:01.454Z,0
2017-03-04T00:24:41.899Z,0
2017-03-04T00:25:22.305Z,0
2017-03-04T00:26:02.713Z,0
2017-03-04T00:26:43.125Z,0
2017-03-04T00:27:23.489Z,0
2017-03-04T00:28:03.866Z,0
2017-03-04T00:28:44.250Z,0
2017-03-04T00:29:24.651Z,0
2017-03-04T00:30:05.166Z,0
2017-03-04T00:30:46.503Z,0
2017-03-04T00:31:26.885Z,0
2017-03-04T00:32:07.257Z,0
2017-03-04T00:32:47.651Z,0
2017-03-04T00:33:28.036Z,0
2017-03-04T00:34:08.485Z,0
2017-03-04T00:34:48.920Z,0
2017-03-04T00:35:29.292Z,0
2017-03-04T00:37:47.033Z,0
2017-03-04T00:38:27.401Z,0
2017-03-04T00:39:07.787Z,0
2017-03-04T00:39:48.120Z,0
2017-03-04T00:40:28.522Z,0
2017-03-04T00:41:08.947Z,0
2017-03-04T00:41:49.309Z,0
2017-03-04T00:42:29.709Z,0
2017-03-04T00:43:10.147Z,0
2017-03-04T00:43:50.566Z,0
2017-03-04T00:44:30.966Z,0
2017-03-04T00:45:11.373Z,0
2017-03-04T00:45:51.732Z,0
2017-03-04T00:46:32.113Z,0
2017-03-04T00:47:12.537Z,0
2017-03-04T00:47:52.921Z,0
2017-03-04T00:48:33.299Z,0
2017-03-04T00:49:13.709Z,0
2017-03-04T00:49:54.102Z,0
2017-03-04T00:50:34.481Z,0
2017-03-04T00:51:14.886Z,0
2017-03-04T00:51:55.253Z,0
2017-03-04T00:52:35.651Z,0
2017-03-04T00:53:16.041Z,0
2017-03-04T00:53:56.445Z,0
2017-03-04T00:54:36.848Z,0
2017-03-04T00:55:17.222Z,0
2017-03-04T00:55:57.656Z,0
2017-03-04T00:56:38.027Z,0
2017-03-04T00:59:16.014Z,0
2017-03-04T00:59:57.254Z,0
2017-03-04T01:00:37.670Z,0
2017-03-04T01:01:18.086Z,0
2017-03-04T01:01:58.469Z,0
2017-03-04T01:02:38.888Z,0
2017-03-04T01:03:19.352Z,0
2017-03-04T01:03:59.805Z,0
2017-03-04T01:04:40.307Z,0
2017-03-04T01:05:20.693Z,0
2017-03-04T01:06:01.048Z,0
2017-03-04T01:06:41.436Z,0
2017-03-04T01:07:21.825Z,0
2017-03-04T01:08:02.254Z,0
2017-03-04T01:08:42.682Z,0
2017-03-04T01:09:23.219Z,0
2017-03-04T01:10:03.616Z,0
2017-03-04T01:10:43.983Z,0
2017-03-04T01:11:24.366Z,0
2017-03-04T01:12:04.735Z,0
2017-03-04T01:12:45.201Z,0
2017-03-04T01:13:25.584Z,0
2017-03-04T01:14:05.974Z,0
2017-03-04T01:14:46.427Z,0
2017-03-04T01:15:26.802Z,0
2017-03-04T01:16:07.227Z,0
2017-03-04T01:16:47.625Z,0
2017-03-04T01:17:28.034Z,0
2017-03-04T01:18:08.405Z,0
2017-03-04T01:18:48.793Z,0
2017-03-04T01:19:29.167Z,0
2017-03-04T01:20:09.516Z,0
2017-03-04T01:20:49.931Z,0
2017-03-04T01:21:30.355Z,0
2017-03-04T01:23:58.140Z,0
2017-03-04T01:24:38.565Z,0
2017-03-04T01:25:19.027Z,0
2017-03-04T01:25:59.423Z,0
2017-03-04T01:26:39.824Z,0
2017-03-04T01:27:20.241Z,0
2017-03-04T01:28:00.675Z,0
2017-03-04T01:28:41.097Z,0
2017-03-04T01:29:21.496Z,0
2017-03-04T01:30:01.902Z,0
2017-03-04T01:30:43.851Z,0
2017-03-04T01:31:24.269Z,0
2017-03-04T01:32:04.711Z,0
2017-03-04T01:32:45.122Z,0
2017-03-04T01:33:25.553Z,0
2017-03-04T01:34:05.989Z,0
2017-03-04T01:34:46.409Z,0
2017-03-04T01:35:26.840Z,0
2017-03-04T01:36:07.265Z,0
2017-03-04T01:36:47.674Z,0
2017-03-04T01:37:28.093Z,0
2017-03-04T01:38:08.515Z,0
2017-03-04T01:38:48.964Z,0
2017-03-04T01:39:29.390Z,0
2017-03-04T01:40:09.821Z,0
2017-03-04T01:40:50.864Z,0
2017-03-04T01:41:31.305Z,0
2017-03-04T01:42:11.731Z,0
2017-03-04T01:42:52.175Z,0
2017-03-04T01:43:33.606Z,0
2017-03-04T01:44:14.038Z,0
2017-03-04T01:44:54.495Z,0
2017-03-04T01:45:34.945Z,0
2017-03-04T01:46:15.375Z,0
2017-03-04T01:46:55.817Z,0
2017-03-04T01:47:36.274Z,0
2017-03-04T01:48:16.638Z,0
2017-03-04T01:48:57.091Z,0
2017-03-04T01:49:37.439Z,0
2017-03-04T01:51:50.661Z,0
2017-03-04T01:52:31.081Z,0
2017-03-04T01:53:11.510Z,0
2017-03-04T01:53:51.969Z,0
2017-03-04T01:54:33.142Z,0
2017-03-04T01:55:13.564Z,0
2017-03-04T01:55:53.967Z,0
2017-03-04T01:56:34.402Z,0
2017-03-04T01:57:14.836Z,0
2017-03-04T01:57:55.227Z,0
2017-03-04T01:58:35.625Z,0
2017-03-04T01:59:16.041Z,0
2017-03-04T01:59:56.447Z,0
2017-03-04T02:00:37.569Z,0
2017-03-04T02:01:17.975Z,0
2017-03-04T02:01:58.410Z,0
2017-03-04T02:02:38.848Z,0
2017-03-04T02:03:19.298Z,0
2017-03-04T02:04:00.657Z,0
2017-03-04T02:04:41.088Z,0
2017-03-04T02:05:21.514Z,0
2017-03-04T02:06:01.948Z,0
2017-03-04T02:06:42.401Z,0
2017-03-04T02:07:22.790Z,0
2017-03-04T02:08:03.183Z,0
2017-03-04T02:08:43.583Z,0
2017-03-04T02:09:23.980Z,0
2017-03-04T02:10:04.390Z,0
2017-03-04T02:10:44.822Z,0
2017-03-04T02:11:25.258Z,0
2017-03-04T02:12:05.678Z,0
2017-03-04T02:12:46.813Z,0
2017-03-04T02:13:27.226Z,0
2017-03-04T02:14:07.617Z,0
2017-03-04T02:14:48.848Z,0
2017-03-04T02:15:29.273Z,0
2017-03-04T02:16:09.690Z,0
2017-03-04T02:16:50.114Z,0
2017-03-04T02:17:30.516Z,0
2017-03-04T02:18:10.880Z,0
2017-03-04T02:18:51.269Z,0
2017-03-04T02:19:31.634Z,0
2017-03-04T02:20:12.008Z,0
2017-03-04T02:20:52.441Z,0
2017-03-04T02:21:32.859Z,0
2017-03-04T02:22:13.309Z,0
2017-03-04T02:22:54.582Z,0
2017-03-04T02:23:35.014Z,0
2017-03-04T02:24:16.410Z,0
2017-03-04T02:24:56.865Z,0
2017-03-04T02:25:37.306Z,0
2017-03-04T02:26:17.769Z,0
2017-03-04T02:26:58.201Z,0
2017-03-04T02:27:38.579Z,0
2017-03-04T02:28:19.004Z,0
2017-03-04T02:28:59.435Z,0
2017-03-04T02:29:39.845Z,0
2017-03-04T02:30:20.250Z,0
2017-03-04T02:32:53.241Z,0
2017-03-04T02:33:33.622Z,0
2017-03-04T02:34:14.044Z,0
2017-03-04T02:34:54.419Z,0
2017-03-04T02:35:34.793Z,0
2017-03-04T02:36:15.167Z,0
2017-03-04T02:36:55.594Z,0
2017-03-04T02:37:35.988Z,0
2017-03-04T02:38:16.366Z,0
2017-03-04T02:38:56.876Z,0
2017-03-04T02:39:37.303Z,0
2017-03-04T02:40:17.722Z,0
2017-03-04T02:40:58.092Z,0
2017-03-04T02:41:38.465Z,0
2017-03-04T02:42:18.864Z,0
2017-03-04T02:42:59.236Z,0
2017-03-04T02:43:39.619Z,0
2017-03-04T02:44:20.045Z,0
2017-03-04T02:45:00.418Z,0
2017-03-04T02:45:40.797Z,0
2017-03-04T02:46:21.188Z,0
2017-03-04T02:47:01.579Z,0
2017-03-04T02:47:42.007Z,0
2017-03-04T02:48:22.357Z,0
2017-03-04T02:49:02.748Z,0
2017-03-04T02:49:43.148Z,0
2017-03-04T02:50:24.198Z,0
2017-03-04T02:51:04.578Z,0
2017-03-04T02:51:45.032Z,0
2017-03-04T02:52:25.435Z,0
2017-03-04T02:53:05.840Z,0
2017-03-04T02:53:46.251Z,0
2017-03-04T02:54:26.637Z,0
2017-03-04T02:56:59.524Z,0
2017-03-04T02:57:39.966Z,0
2017-03-04T02:58:20.402Z,0
2017-03-04T02:59:00.827Z,0
2017-03-04T02:59:41.238Z,0
2017-03-04T03:00:21.673Z,0
2017-03-04T03:01:02.101Z,0
2017-03-04T03:01:42.539Z,0
2017-03-04T03:02:22.927Z,0
2017-03-04T03:03:03.326Z,0
2017-03-04T03:05:21.058Z,0
2017-03-04T03:06:01.491Z,0
2017-03-04T03:06:41.925Z,0
2017-03-04T03:07:22.348Z,0
2017-03-04T03:08:02.770Z,0
2017-03-04T03:08:43.177Z,0
2017-03-04T03:09:23.572Z,0
2017-03-04T03:10:03.962Z,0
2017-03-04T03:10:44.347Z,0
2017-03-04T03:11:24.793Z,0
2017-03-04T03:12:05.187Z,0
2017-03-04T03:12:45.537Z,0
2017-03-04T03:13:25.921Z,0
2017-03-04T03:14:06.314Z,0
2017-03-04T03:16:34.104Z,0
2017-03-04T03:17:14.527Z,0
2017-03-04T03:17:54.953Z,0
2017-03-04T03:18:35.304Z,0
2017-03-04T03:19:15.682Z,0
2017-03-04T03:19:56.107Z,0
2017-03-04T03:20:36.464Z,0
2017-03-04T03:21:16.892Z,0
2017-03-04T03:21:57.280Z,0
2017-03-04T03:22:37.684Z,0
2017-03-04T03:23:18.070Z,0
2017-03-04T03:23:58.450Z,0
2017-03-04T03:24:38.882Z,0
2017-03-04T03:27:06.690Z,0
2017-03-04T03:27:47.140Z,0
2017-03-04T03:28:27.596Z,0
2017-03-04T03:29:08.009Z,0
2017-03-04T03:29:48.384Z,0
2017-03-04T03:30:28.762Z,0
2017-03-04T03:31:09.226Z,0
2017-03-04T03:31:49.671Z,0
2017-03-04T03:32:30.021Z,0
2017-03-04T03:33:10.387Z,0
2017-03-04T03:33:50.760Z,0
2017-03-04T03:34:31.194Z,0
2017-03-04T03:35:11.580Z,0
2017-03-04T03:35:51.955Z,0
2017-03-04T03:36:32.356Z,0
2017-03-04T03:37:12.755Z,0
2017-03-04T03:37:53.175Z,0
2017-03-04T03:38:33.577Z,0
2017-03-04T03:39:14.117Z,0
2017-03-04T03:39:54.493Z,0
2017-03-04T03:40:34.879Z,0
2017-03-04T03:41:15.284Z,0
2017-03-04T03:41:55.650Z,0
2017-03-04T03:42:36.074Z,0
2017-03-04T03:43:16.406Z,0
2017-03-04T03:43:56.787Z,0
2017-03-04T03:44:37.173Z,0
2017-03-04T03:45:17.574Z,0
2017-03-04T03:45:57.931Z,0
2017-03-04T03:46:38.318Z,0
2017-03-04T03:47:18.685Z,0
2017-03-04T03:47:59.662Z,0
2017-03-04T03:48:40.036Z,0
2017-03-04T03:49:20.443Z,0
2017-03-04T03:50:00.791Z,0
2017-03-04T03:50:41.182Z,0
2017-03-04T03:51:21.560Z,0
2017-03-04T03:52:01.950Z,0
2017-03-04T03:52:42.341Z,0
2017-03-04T03:53:22.723Z,0
2017-03-04T03:54:03.159Z,0
2017-03-04T03:54:43.526Z,0
2017-03-04T03:55:23.939Z,0
2017-03-04T03:56:04.328Z,0
2017-03-04T03:56:44.690Z,0
2017-03-04T03:57:25.076Z,0
2017-03-04T03:58:05.476Z,0
2017-03-04T03:58:45.833Z,0
2017-03-04T03:59:26.213Z,0
2017-03-04T04:00:06.593Z,0
2017-03-04T04:00:47.013Z,0
2017-03-04T04:01:27.398Z,0
2017-03-04T04:02:07.753Z,0
2017-03-04T04:02:48.156Z,0
2017-03-04T04:03:28.536Z,0
2017-03-04T04:04:08.908Z,0
2017-03-04T04:04:49.316Z,0
2017-03-04T04:05:29.723Z,0
2017-03-04T04:06:10.187Z,0
2017-03-04T04:06:50.543Z,0
2017-03-04T04:09:03.237Z,0
2017-03-04T04:09:43.654Z,0
2017-03-04T04:10:24.096Z,0
2017-03-04T04:11:04.532Z,0
2017-03-04T04:11:45.679Z,0
2017-03-04T04:12:26.112Z,0
2017-03-04T04:13:06.558Z,0
2017-03-04T04:13:47.012Z,0
2017-03-04T04:14:27.448Z,0
2017-03-04T04:15:07.871Z,0
2017-03-04T04:15:48.317Z,0
2017-03-04T04:16:28.742Z,0
2017-03-04T04:17:09.724Z,0
2017-03-04T04:17:50.111Z,0
2017-03-04T04:18:30.514Z,0
2017-03-04T04:19:10.881Z,0
2017-03-04T04:19:51.279Z,0
2017-03-04T04:20:31.678Z,0
2017-03-04T04:21:12.073Z,0
2017-03-04T04:21:52.456Z,0
2017-03-04T04:22:32.861Z,0
2017-03-04T04:23:13.267Z,0
2017-03-04T04:23:53.668Z,0
2017-03-04T04:24:34.035Z,0
2017-03-04T04:25:14.484Z,0
2017-03-04T04:25:55.731Z,0
2017-03-04T04:26:36.138Z,0
2017-03-04T04:27:16.574Z,0
2017-03-04T04:27:56.985Z,0
2017-03-04T04:28:38.323Z,0
2017-03-04T04:29:18.720Z,0
2017-03-04T04:29:59.125Z,0
2017-03-04T04:30:39.496Z,0
2017-03-04T04:31:19.885Z,0
2017-03-04T04:32:00.298Z,0
2017-03-04T04:32:40.706Z,0
2017-03-04T04:33:21.124Z,0
2017-03-04T04:34:01.556Z,0
2017-03-04T04:34:41.972Z,0
2017-03-04T04:35:22.401Z,0
2017-03-04T04:36:02.784Z,0
2017-03-04T04:36:43.199Z,0
2017-03-04T04:37:23.559Z,0
2017-03-04T04:38:03.959Z,0
2017-03-04T04:38:44.369Z,0
2017-03-04T04:41:02.072Z,0
2017-03-04T04:41:42.486Z,0
2017-03-04T04:42:22.900Z,0
2017-03-04T04:43:03.363Z,0
2017-03-04T04:43:43.783Z,0
2017-03-04T04:44:24.201Z,0
2017-03-04T04:45:04.620Z,0
2017-03-04T04:45:45.028Z,0
2017-03-04T04:46:25.473Z,0
2017-03-04T04:47:05.918Z,0
2017-03-04T04:47:46.332Z,0
2017-03-04T04:48:26.758Z,0
2017-03-04T04:49:07.210Z,0
2017-03-04T04:49:47.626Z,0
2017-03-04T04:50:28.064Z,0
2017-03-04T04:51:08.523Z,0
2017-03-04T04:51:48.969Z,0
2017-03-04T04:52:29.400Z,0
2017-03-04T04:53:09.833Z,0
2017-03-04T04:53:50.265Z,0
2017-03-04T04:54:30.702Z,0
2017-03-04T04:55:11.128Z,0
2017-03-04T04:55:51.542Z,0
2017-03-04T04:56:31.972Z,0
2017-03-04T04:57:12.399Z,0
2017-03-04T04:57:52.849Z,0
2017-03-04T04:58:33.276Z,0
2017-03-04T04:59:14.412Z,0
2017-03-04T04:59:54.863Z,0
2017-03-04T05:00:35.252Z,0
2017-03-04T05:01:15.673Z,0
2017-03-04T05:01:56.117Z,0
2017-03-04T05:02:36.525Z,0
2017-03-04T05:03:16.937Z,0
2017-03-04T05:03:57.353Z,0
2017-03-04T05:04:37.784Z,0
2017-03-04T05:05:18.207Z,0
2017-03-04T05:05:58.640Z,0
2017-03-04T05:06:39.068Z,0
2017-03-04T05:07:19.508Z,0
2017-03-04T05:07:59.959Z,0
2017-03-04T05:08:40.342Z,0
2017-03-04T05:09:20.750Z,0
2017-03-04T05:10:01.130Z,0
2017-03-04T05:10:41.517Z,0
2017-03-04T05:11:21.934Z,0
2017-03-04T05:12:02.325Z,0
2017-03-04T05:12:42.704Z,0
2017-03-04T05:13:23.110Z,0
2017-03-04T05:14:03.465Z,0
2017-03-04T05:14:43.861Z,0
2017-03-04T05:15:24.287Z,0
2017-03-04T05:16:04.707Z,0
2017-03-04T05:16:45.084Z,0
2017-03-04T05:17:25.490Z,0
2017-03-04T05:18:05.903Z,0
2017-03-04T05:18:46.301Z,0
2017-03-04T05:19:26.707Z,0
2017-03-04T05:20:07.089Z,0
2017-03-04T05:20:47.481Z,0
2017-03-04T05:21:27.928Z,0
2017-03-04T05:22:08.355Z,0
2017-03-04T05:22:48.786Z,0
2017-03-04T05:23:29.219Z,0
2017-03-04T05:24:09.661Z,0
2017-03-04T05:24:50.065Z,0
2017-03-04T05:25:30.476Z,0
2017-03-04T05:26:10.912Z,0
2017-03-04T05:26:51.351Z,0
2017-03-04T05:27:31.809Z,0
2017-03-04T05:28:12.233Z,0
2017-03-04T05:28:52.663Z,0
2017-03-04T05:29:33.098Z,0
2017-03-04T05:30:13.500Z,0
2017-03-04T05:30:53.934Z,0
2017-03-04T05:31:34.366Z,0
2017-03-04T05:32:14.797Z,0
2017-03-04T05:32:55.197Z,0
2017-03-04T05:33:35.646Z,0
2017-03-04T05:34:16.083Z,0
2017-03-04T05:34:56.532Z,0
2017-03-04T07:39:03.791Z,110
2017-03-04T07:39:44.214Z,110
2017-03-04T07:40:24.643Z,110
2017-03-04T07:41:05.029Z,110
2017-03-04T07:41:45.455Z,110
2017-03-04T07:42:25.886Z,110
2017-03-04T07:43:06.274Z,110
2017-03-04T07:43:46.710Z,110
2017-03-04T07:44:27.147Z,115
2017-03-04T07:45:07.559Z,110
2017-03-04T07:45:47.999Z,115
2017-03-04T07:46:28.434Z,115
2017-03-04T07:47:08.885Z,115
2017-03-04T07:47:49.290Z,115
2017-03-04T07:48:29.724Z,115
2017-03-04T07:49:10.404Z,120
2017-03-04T07:49:50.839Z,120
2017-03-04T07:50:31.281Z,115
2017-03-04T07:51:11.702Z,115
2017-03-04T07:51:52.128Z,115
2017-03-04T07:52:32.536Z,120
2017-03-04T07:53:12.966Z,115
2017-03-04T07:53:53.411Z,120
2017-03-04T07:54:33.793Z,110
2017-03-04T07:55:14.215Z,110
2017-03-04T07:55:54.650Z,115
2017-03-04T07:56:35.121Z,115
2017-03-04T07:57:15.564Z,120
2017-03-04T07:57:56.001Z,120
2017-03-04T07:58:36.393Z,135
2017-03-04T07:59:16.797Z,140
2017-03-04T07:59:57.205Z,140
2017-03-04T08:00:37.599Z,140
2017-03-04T08:01:18.063Z,140
2017-03-04T08:01:58.485Z,140
2017-03-04T08:02:38.881Z,140
2017-03-04T08:03:19.291Z,140
2017-03-04T08:05:47.123Z,145
2017-03-04T08:06:27.551Z,145
2017-03-04T08:07:07.993Z,150
2017-03-04T08:07:48.433Z,150
2017-03-04T08:08:28.861Z,150
2017-03-04T08:09:09.274Z,150
2017-03-04T08:09:49.731Z,155
2017-03-04T08:10:30.131Z,160
2017-03-04T08:11:10.543Z,165
2017-03-04T08:11:51.008Z,160
2017-03-04T08:12:31.412Z,165
2017-03-04T08:13:11.817Z,170
2017-03-04T08:13:52.180Z,175
2017-03-04T08:14:32.591Z,170
2017-03-04T08:15:13.024Z,170
2017-03-04T08:15:53.450Z,165
2017-03-04T08:16:33.889Z,180
2017-03-04T08:17:14.332Z,190
2017-03-04T08:17:54.732Z,200
2017-03-04T08:18:35.177Z,210
2017-03-04T08:19:15.620Z,210
2017-03-04T08:19:56.022Z,210
2017-03-04T08:20:36.448Z,220
2017-03-04T08:21:16.845Z,225
2017-03-04T08:21:57.253Z,235
2017-03-04T08:22:37.652Z,240
2017-03-04T08:23:18.078Z,245
2017-03-04T08:23:59.300Z,240
2017-03-04T08:24:39.718Z,245
2017-03-04T08:25:20.137Z,245
2017-03-04T08:26:00.527Z,245
2017-03-04T08:28:13.225Z,250
2017-03-04T08:28:53.677Z,250
2017-03-04T08:29:34.093Z,245
2017-03-04T08:30:14.532Z,265
2017-03-04T08:30:54.965Z,285
2017-03-04T08:31:35.429Z,310
2017-03-04T08:32:15.883Z,320
2017-03-04T08:32:56.333Z,295
2017-03-04T08:33:36.753Z,300
2017-03-04T08:34:17.194Z,290
2017-03-04T08:34:57.626Z,300
2017-03-04T08:35:38.070Z,290
2017-03-04T08:36:18.512Z,305
2017-03-04T08:36:58.957Z,495
2017-03-04T08:37:39.390Z,695
2017-03-04T08:38:19.835Z,665
2017-03-04T08:39:00.277Z,645
2017-03-04T08:39:40.728Z,560
2017-03-04T08:40:21.185Z,555
2017-03-04T08:41:01.635Z,530
2017-03-04T08:41:42.082Z,525
2017-03-04T08:42:22.528Z,525
2017-03-04T08:43:02.979Z,490
2017-03-04T08:43:43.408Z,465
2017-03-04T08:44:23.836Z,485
2017-03-04T08:45:04.290Z,495
2017-03-04T08:45:44.744Z,505
2017-03-04T08:46:25.203Z,495
2017-03-04T08:47:05.663Z,485
2017-03-04T08:47:46.121Z,450
2017-03-04T08:48:26.565Z,470
2017-03-04T08:49:07.012Z,490
2017-03-04T08:49:47.464Z,500
2017-03-04T08:50:27.890Z,500
2017-03-04T08:51:08.330Z,495
2017-03-04T08:51:48.770Z,460
2017-03-04T08:52:29.225Z,430
2017-03-04T08:53:09.679Z,405
2017-03-04T08:53:50.136Z,400
2017-03-04T08:54:30.602Z,400
2017-03-04T08:55:11.063Z,390
2017-03-04T08:55:51.519Z,370
2017-03-04T08:56:31.966Z,360
2017-03-04T08:57:12.419Z,345
2017-03-04T08:57:52.863Z,340
2017-03-04T08:58:33.300Z,325
2017-03-04T08:59:13.743Z,310
2017-03-04T08:59:54.183Z,290
2017-03-04T09:00:34.635Z,290
2017-03-04T09:01:15.084Z,285
2017-03-04T09:01:55.524Z,290
2017-03-04T09:02:35.996Z,280
2017-03-04T09:03:16.461Z,275
2017-03-04T09:03:56.905Z,270
2017-03-04T09:04:37.347Z,270
2017-03-04T09:05:17.777Z,270
2017-03-04T09:05:58.229Z,265
2017-03-04T09:06:38.664Z,265
2017-03-04T09:07:19.106Z,260
2017-03-04T09:07:59.560Z,260
2017-03-04T09:08:39.999Z,265
2017-03-04T09:09:20.419Z,260
2017-03-04T09:10:00.860Z,260
2017-03-04T09:10:41.304Z,260
2017-03-04T09:11:21.746Z,260
2017-03-04T09:12:02.206Z,255
2017-03-04T09:12:42.660Z,250
2017-03-04T09:13:23.099Z,250
2017-03-04T09:14:03.551Z,245
2017-03-04T09:14:43.981Z,245
2017-03-04T09:15:24.412Z,240
2017-03-04T09:16:04.853Z,240
2017-03-04T09:16:45.314Z,240
2017-03-04T09:17:25.764Z,240
2017-03-04T09:18:06.223Z,240
2017-03-04T09:18:46.683Z,240
2017-03-04T09:19:27.133Z,240
2017-03-04T09:20:07.541Z,245
2017-03-04T09:20:47.956Z,245
2017-03-04T09:21:28.424Z,250
2017-03-04T09:22:08.876Z,250
2017-03-04T09:22:49.321Z,255
2017-03-04T09:23:29.761Z,260
2017-03-04T09:24:10.182Z,260
2017-03-04T09:24:50.625Z,265
2017-03-04T09:25:31.069Z,275
2017-03-04T09:26:11.521Z,280
2017-03-04T09:26:51.965Z,290
2017-03-04T09:27:32.415Z,305
2017-03-04T09:28:12.831Z,320
2017-03-04T09:28:53.260Z,345
2017-03-04T09:29:33.710Z,420
2017-03-04T09:30:14.164Z,505
2017-03-04T09:30:54.607Z,565
2017-03-04T09:31:35.062Z,495
2017-03-04T09:32:15.522Z,500
2017-03-04T09:32:55.958Z,485
2017-03-04T09:33:36.395Z,465
2017-03-04T09:34:16.834Z,470
2017-03-04T09:34:57.278Z,450
2017-03-04T09:35:37.707Z,440
2017-03-04T09:36:18.149Z,425
2017-03-04T09:36:58.579Z,410
2017-03-04T09:37:39.007Z,400
2017-03-04T09:38:19.452Z,395
2017-03-04T09:38:59.895Z,395
2017-03-04T09:39:40.341Z,390
2017-03-04T09:40:20.773Z,375
2017-03-04T09:41:01.204Z,375
2017-03-04T09:41:41.654Z,380
2017-03-04T09:42:22.100Z,365
2017-03-04T09:43:02.539Z,365
2017-03-04T09:43:42.980Z,370
2017-03-04T09:44:23.419Z,355
2017-03-04T09:45:03.869Z,355
2017-03-04T09:45:44.357Z,345
2017-03-04T09:46:24.791Z,345
2017-03-04T09:47:05.242Z,340
2017-03-04T09:47:45.678Z,330
2017-03-04T09:48:26.132Z,335
2017-03-04T09:49:06.566Z,330
2017-03-04T09:49:46.994Z,330
2017-03-04T09:50:27.401Z,335
2017-03-04T09:51:07.816Z,330
2017-03-04T09:51:48.252Z,330
2017-03-04T09:52:28.670Z,325
2017-03-04T09:53:09.121Z,335
2017-03-04T09:53:49.565Z,315
2017-03-04T09:54:30.019Z,320
2017-03-04T09:55:10.442Z,325
2017-03-04T09:55:50.877Z,310
2017-03-04T09:56:31.327Z,300
2017-03-04T09:57:11.774Z,305
2017-03-04T09:57:52.220Z,315
2017-03-04T09:58:32.641Z,310
2017-03-04T09:59:13.066Z,310
2017-03-04T09:59:53.457Z,310
2017-03-04T10:00:33.901Z,310
2017-03-04T10:01:14.397Z,325
2017-03-04T10:01:54.826Z,320
2017-03-04T10:02:35.277Z,325
2017-03-04T10:03:15.717Z,320
2017-03-04T10:03:56.169Z,325
2017-03-04T10:04:36.615Z,325
2017-03-04T10:05:17.050Z,325
2017-03-04T10:05:57.484Z,325
2017-03-04T10:06:37.918Z,325
2017-03-04T10:07:18.351Z,325
2017-03-04T10:07:58.805Z,330
2017-03-04T10:08:39.213Z,340
2017-03-04T10:09:19.649Z,330
2017-03-04T10:10:00.085Z,340
2017-03-04T10:10:40.536Z,360
2017-03-04T10:11:20.994Z,380
2017-03-04T10:12:01.443Z,390
2017-03-04T10:12:41.898Z,390
2017-03-04T10:13:22.339Z,395
2017-03-04T10:14:02.763Z,395
2017-03-04T10:14:43.190Z,395
2017-03-04T10:15:23.620Z,405
2017-03-04T10:16:04.079Z,415
2017-03-04T10:16:44.515Z,450
2017-03-04T10:17:24.946Z,465
2017-03-04T10:18:05.369Z,500
2017-03-04T10:18:45.844Z,525
2017-03-04T10:19:26.286Z,675
2017-03-04T10:20:06.748Z,930
2017-03-04T10:20:47.205Z,1150
2017-03-04T10:21:27.646Z,1165
2017-03-04T10:22:08.099Z,1050
2017-03-04T10:24:41.017Z,635
2017-03-04T10:25:21.428Z,555
2017-03-04T10:26:01.838Z,570
2017-03-04T10:26:42.228Z,510
2017-03-04T10:27:22.618Z,470
2017-03-04T10:28:03.037Z,490
2017-03-04T10:28:43.476Z,510
2017-03-04T10:29:23.892Z,460
2017-03-04T10:30:04.289Z,460
2017-03-04T10:30:44.693Z,440
2017-03-04T10:31:25.103Z,435
2017-03-04T10:32:05.511Z,440
2017-03-04T10:32:45.964Z,440
2017-03-04T10:33:26.392Z,415
2017-03-04T10:34:06.782Z,400
2017-03-04T10:34:47.191Z,390
2017-03-04T10:35:27.593Z,380
2017-03-04T10:36:08.004Z,375
2017-03-04T10:36:48.417Z,370
2017-03-04T10:37:28.817Z,365
2017-03-04T10:38:09.231Z,365
2017-03-04T10:38:49.640Z,360
2017-03-04T10:39:30.049Z,370
2017-03-04T10:40:10.453Z,370
2017-03-04T10:40:50.872Z,365
2017-03-04T10:41:31.264Z,400
2017-03-04T10:42:11.674Z,465
2017-03-04T10:42:52.089Z,430
2017-03-04T10:43:32.532Z,385
2017-03-04T10:44:12.974Z,400
2017-03-04T10:44:53.386Z,405
2017-03-04T10:45:33.812Z,410
2017-03-04T10:46:14.224Z,440
2017-03-04T10:46:54.613Z,440
2017-03-04T10:47:35.030Z,440
2017-03-04T10:48:15.444Z,455
2017-03-04T10:48:55.891Z,445
2017-03-04T10:49:36.369Z,425
2017-03-04T10:50:16.958Z,420
2017-03-04T10:50:57.370Z,420
2017-03-04T10:51:37.818Z,415
2017-03-04T10:52:18.225Z,445
2017-03-04T10:52:58.888Z,475
2017-03-04T10:55:31.858Z,400
2017-03-04T10:56:12.304Z,395
2017-03-04T10:56:52.891Z,390
2017-03-04T10:57:33.356Z,380
2017-03-04T10:58:13.784Z,375
2017-03-04T10:58:54.202Z,370
2017-03-04T10:59:34.626Z,370
2017-03-04T11:00:15.045Z,375
2017-03-04T11:00:55.434Z,375
2017-03-04T11:01:35.849Z,375
2017-03-04T11:02:16.247Z,370
2017-03-04T11:02:56.671Z,370
2017-03-04T11:03:37.063Z,375
2017-03-04T11:04:17.525Z,385
2017-03-04T11:04:57.927Z,395
2017-03-04T11:05:38.444Z,395
2017-03-04T11:06:18.878Z,400
2017-03-04T11:08:46.720Z,390
2017-03-04T11:09:27.156Z,390
2017-03-04T11:10:07.576Z,385
2017-03-04T11:10:48.010Z,380
2017-03-04T11:11:28.424Z,405
2017-03-04T11:12:08.888Z,415
2017-03-04T11:12:49.347Z,475
2017-03-04T11:13:29.808Z,595
2017-03-04T11:14:10.262Z,845
2017-03-04T11:14:50.722Z,575
2017-03-04T11:15:31.175Z,550
2017-03-04T11:16:11.641Z,515
2017-03-04T11:16:52.098Z,495
2017-03-04T11:17:32.548Z,515
2017-03-04T11:18:12.993Z,545
2017-03-04T11:18:53.385Z,620
2017-03-04T11:19:33.819Z,710
2017-03-04T11:20:14.221Z,710
2017-03-04T11:20:54.631Z,905
2017-03-04T11:21:35.066Z,955
2017-03-04T11:22:15.438Z,865
2017-03-04T11:22:55.851Z,925
2017-03-04T11:23:36.268Z,940
2017-03-04T11:24:16.704Z,1075
2017-03-04T11:24:57.116Z,970
2017-03-04T11:25:37.528Z,915
2017-03-04T11:26:17.941Z,695
2017-03-04T11:26:58.357Z,785
2017-03-04T11:27:38.742Z,705
2017-03-04T11:28:19.147Z,785
2017-03-04T11:28:59.520Z,780
2017-03-04T11:29:39.937Z,645
2017-03-04T11:30:20.361Z,545
2017-03-04T11:31:00.809Z,515
2017-03-04T11:33:28.667Z,535
2017-03-04T11:34:09.114Z,555
2017-03-04T11:34:49.568Z,630
2017-03-04T11:35:29.992Z,715
2017-03-04T11:36:10.476Z,740
2017-03-04T11:36:50.984Z,700
2017-03-04T11:37:31.444Z,800
2017-03-04T11:38:11.911Z,855
2017-03-04T11:38:52.391Z,865
2017-03-04T11:39:32.832Z,905
2017-03-04T11:42:05.938Z,1195
2017-03-04T11:42:46.422Z,1130
2017-03-04T11:43:26.924Z,840
2017-03-04T11:44:07.423Z,730
2017-03-04T11:44:47.891Z,620
2017-03-04T11:45:28.366Z,555
2017-03-04T11:46:08.901Z,570
2017-03-04T11:46:49.381Z,730
2017-03-04T11:47:29.838Z,730
2017-03-04T11:48:10.305Z,740
2017-03-04T11:48:50.799Z,675
2017-03-04T11:49:31.290Z,620
2017-03-04T11:50:11.762Z,820
2017-03-04T11:50:52.270Z,890
2017-03-04T11:51:32.749Z,1005
2017-03-04T11:52:13.182Z,950
2017-03-04T11:52:53.654Z,775
2017-03-04T11:53:34.170Z,605
2017-03-04T11:54:14.578Z,565
2017-03-04T11:54:55.035Z,535
2017-03-04T11:55:35.542Z,565
2017-03-04T11:56:16.000Z,670
2017-03-04T11:56:56.438Z,745
2017-03-04T11:57:36.870Z,650
2017-03-04T11:59:49.609Z,925
2017-03-04T12:00:30.071Z,930
2017-03-04T12:01:10.521Z,805
2017-03-04T12:01:50.963Z,700
2017-03-04T12:02:31.428Z,700
2017-03-04T12:03:11.888Z,735
2017-03-04T12:03:52.311Z,855
2017-03-04T12:04:32.763Z,850
2017-03-04T12:05:13.244Z,800
2017-03-04T12:05:53.664Z,820
2017-03-04T12:06:34.146Z,735
2017-03-04T12:09:12.226Z,665
2017-03-04T12:09:53.283Z,635
2017-03-04T12:10:33.760Z,585
2017-03-04T12:11:14.256Z,590
2017-03-04T12:11:54.728Z,545
2017-03-04T12:12:35.226Z,525
2017-03-04T12:13:15.679Z,530
2017-03-04T12:13:56.147Z,560
2017-03-04T12:14:36.612Z,550
2017-03-04T12:15:17.102Z,540
2017-03-04T12:15:57.567Z,545
2017-03-04T12:16:38.036Z,555
2017-03-04T12:17:18.505Z,585
2017-03-04T12:17:58.897Z,620
2017-03-04T12:18:39.364Z,650